Time;durP1;ratioP1;P1;durP2;ratioP2;P2;SDS_P1;SDS_P2;PMS_P1;PMS_P2;Temp;Humidity;BMP_temperature;BMP_pressure;BME280_temperature;BME280_humidity;BME280_pressure;Samples;Min_cycle;Max_cycle;Signal;HPM_P1;HPM_P2
2022/05/30 00:00:14;;;;;;;4.68;1.58;;;11.70;69.60;;;;;;5102639;28;20474;-69
2022/05/30 00:02:40;;;;;;;4.15;1.13;;;11.60;69.60;;;;;;5074599;28;20024;-69
2022/05/30 00:05:07;;;;;;;3.15;1.40;;;11.60;69.70;;;;;;5110175;28;20065;-69
2022/05/30 00:07:32;;;;;;;2.92;1.58;;;11.60;69.90;;;;;;5084791;28;20051;-68
2022/05/30 00:09:58;;;;;;;2.42;1.25;;;11.50;70.10;;;;;;5092637;28;20031;-70
2022/05/30 00:12:24;;;;;;;3.28;1.35;;;11.50;70.10;;;;;;5080144;28;20410;-70
2022/05/30 00:14:49;;;;;;;3.35;1.77;;;11.50;70.10;;;;;;5099235;28;20043;-70
2022/05/30 00:17:15;;;;;;;4.55;1.50;;;11.40;70.20;;;;;;5096122;28;20024;-68
2022/05/30 00:19:40;;;;;;;3.67;1.50;;;11.40;70.30;;;;;;5084214;28;20016;-68
2022/05/30 00:22:07;;;;;;;5.88;1.50;;;11.30;70.50;;;;;;5094929;28;20023;-68
2022/05/30 00:24:33;;;;;;;2.72;1.45;;;11.30;70.70;;;;;;5088406;28;20706;-68
2022/05/30 00:26:58;;;;;;;2.92;1.52;;;11.30;70.80;;;;;;5097849;28;20815;-68
2022/05/30 00:29:24;;;;;;;4.25;1.40;;;11.30;70.90;;;;;;5098985;28;20024;-68
2022/05/30 00:31:51;;;;;;;3.47;1.50;;;11.20;71.00;;;;;;5071025;28;20399;-69
2022/05/30 00:34:20;;;;;;;4.63;1.70;;;11.20;71.30;;;;;;5119276;28;20042;-69
2022/05/30 00:36:45;;;;;;;3.45;1.33;;;11.20;71.40;;;;;;5099376;28;20044;-69
2022/05/30 00:39:11;;;;;;;2.40;1.40;;;11.10;71.60;;;;;;5089316;28;20023;-70
2022/05/30 00:41:37;;;;;;;3.28;1.50;;;11.10;71.60;;;;;;5089506;28;20020;-70
2022/05/30 00:44:02;;;;;;;3.05;1.40;;;11.10;71.80;;;;;;5097075;28;20015;-69
2022/05/30 00:46:28;;;;;;;4.25;1.52;;;11.00;71.90;;;;;;5092403;28;20032;-69
2022/05/30 00:49:01;;;;;;;3.50;1.50;;;11.00;71.90;;;;;;5086584;28;20116;-69
2022/05/30 00:51:49;;;;;;;3.72;1.70;;;11.00;72.00;;;;;;5092228;28;20051;-69
2022/05/30 00:54:20;;;;;;;3.05;1.30;;;11.00;72.20;;;;;;5096897;28;20020;-69
2022/05/30 00:56:50;;;;;;;4.05;1.88;;;11.00;72.20;;;;;;5093481;28;20034;-68
2022/05/30 00:59:16;;;;;;;2.85;1.40;;;10.90;72.30;;;;;;5096006;28;20114;-69
2022/05/30 01:01:42;;;;;;;3.72;1.70;;;10.90;72.30;;;;;;5088606;28;20074;-71
2022/05/30 01:06:58;;;;;;;2.78;1.48;;;10.90;72.40;;;;;;5083279;28;20059;-69
2022/05/30 01:09:30;;;;;;;3.97;1.52;;;10.90;72.40;;;;;;5091758;28;20498;-68
2022/05/30 01:12:03;;;;;;;4.25;1.45;;;10.90;72.50;;;;;;5087662;28;20024;-68
2022/05/30 01:14:33;;;;;;;4.47;1.73;;;10.80;72.50;;;;;;5087452;28;20044;-68
2022/05/30 01:17:00;;;;;;;3.88;1.70;;;10.80;72.50;;;;;;5088571;28;20028;-69
2022/05/30 01:19:44;;;;;;;4.18;1.60;;;10.80;72.50;;;;;;5094512;28;20127;-70
2022/05/30 01:22:42;;;;;;;2.58;1.40;;;10.80;72.50;;;;;;5094230;28;20062;-69
2022/05/30 01:25:12;;;;;;;3.90;1.60;;;10.70;72.60;;;;;;5056054;28;20450;-72
2022/05/30 01:28:10;;;;;;;4.85;1.50;;;10.70;72.70;;;;;;5086270;28;20020;-72
2022/05/30 01:30:39;;;;;;;2.28;1.23;;;10.70;72.70;;;;;;5065189;28;20032;-72
2022/05/30 01:33:05;;;;;;;3.65;1.50;;;10.70;72.60;;;;;;5085045;28;20039;-70
2022/05/30 01:35:31;;;;;;;4.43;1.50;;;10.70;72.70;;;;;;5079602;28;20105;-71
2022/05/30 01:37:57;;;;;;;3.13;1.30;;;10.70;72.60;;;;;;5069377;28;20528;-70
2022/05/30 01:40:26;;;;;;;3.38;1.45;;;10.70;72.60;;;;;;5086798;28;20024;-70
2022/05/30 01:42:51;;;;;;;3.60;1.48;;;10.60;72.70;;;;;;5079843;28;20032;-70
2022/05/30 01:45:17;;;;;;;2.78;1.63;;;10.60;72.90;;;;;;5084605;28;20429;-71
2022/05/30 01:47:43;;;;;;;3.55;1.52;;;10.50;72.90;;;;;;5088179;28;21569;-71
2022/05/30 01:50:08;;;;;;;2.13;1.40;;;10.50;72.90;;;;;;5089238;28;20036;-70
2022/05/30 01:52:34;;;;;;;3.08;1.80;;;10.50;72.90;;;;;;5079580;28;20074;-69
2022/05/30 01:54:59;;;;;;;2.95;1.35;;;10.50;73.50;;;;;;5067658;28;20063;-70
2022/05/30 01:57:25;;;;;;;3.53;1.50;;;10.50;72.90;;;;;;5082770;28;20020;-69
2022/05/30 01:59:50;;;;;;;2.75;1.38;;;10.50;72.90;;;;;;5092342;28;20032;-69
2022/05/30 02:02:16;;;;;;;2.47;1.17;;;10.40;73.00;;;;;;5093069;28;20040;-69
2022/05/30 02:04:41;;;;;;;2.95;1.20;;;10.40;73.00;;;;;;5083363;28;20020;-69
2022/05/30 02:07:07;;;;;;;2.05;1.33;;;10.40;73.00;;;;;;5064247;28;20028;-69
2022/05/30 02:09:32;;;;;;;2.63;1.60;;;10.30;73.00;;;;;;5087793;28;20028;-69
2022/05/30 02:11:58;;;;;;;3.13;1.52;;;10.30;73.10;;;;;;5094658;28;20110;-69
2022/05/30 02:14:24;;;;;;;1.77;1.30;;;10.30;73.20;;;;;;5092021;28;20028;-69
2022/05/30 02:17:02;;;;;;;3.50;1.50;;;10.20;73.20;;;;;;5078464;28;20029;-70
2022/05/30 02:19:41;;;;;;;2.92;1.67;;;10.20;73.30;;;;;;5083981;28;20028;-69
2022/05/30 02:22:10;;;;;;;3.20;1.50;;;10.20;73.30;;;;;;5075853;28;20036;-69
2022/05/30 02:24:38;;;;;;;4.60;1.70;;;10.20;73.30;;;;;;5078551;28;20025;-69
2022/05/30 02:27:04;;;;;;;3.05;1.58;;;10.20;73.30;;;;;;5087259;28;20035;-69
2022/05/30 02:29:30;;;;;;;3.72;1.80;;;10.20;73.30;;;;;;5086822;28;20048;-69
2022/05/30 02:31:56;;;;;;;3.25;1.40;;;10.20;73.40;;;;;;5089659;28;20066;-69
2022/05/30 02:37:06;;;;;;;3.55;1.50;;;10.20;73.40;;;;;;5084041;28;20077;-69
2022/05/30 02:39:31;;;;;;;3.83;1.50;;;10.20;73.30;;;;;;5090106;28;20032;-69
2022/05/30 02:41:57;;;;;;;3.30;1.70;;;10.20;74.00;;;;;;5083247;28;20518;-68
2022/05/30 02:44:24;;;;;;;2.60;1.40;;;10.20;73.40;;;;;;5062551;28;20604;-67
2022/05/30 02:46:52;;;;;;;4.43;1.92;;;10.20;73.40;;;;;;5087078;28;20027;-67
2022/05/30 02:49:19;;;;;;;4.85;1.58;;;10.20;73.60;;;;;;5089432;28;20025;-67
2022/05/30 02:51:45;;;;;;;3.83;1.83;;;10.10;73.70;;;;;;5064276;28;20139;-69
2022/05/30 02:54:11;;;;;;;3.58;1.73;;;10.10;73.80;;;;;;5079558;28;20482;-71
2022/05/30 02:56:38;;;;;;;3.55;1.63;;;10.00;74.00;;;;;;5089679;28;20035;-71
2022/05/30 02:59:05;;;;;;;3.60;2.05;;;10.00;74.10;;;;;;5087225;28;20027;-69
2022/05/30 03:01:33;;;;;;;3.30;1.70;;;10.00;74.20;;;;;;5083879;28;20020;-66
2022/05/30 03:04:01;;;;;;;2.88;1.60;;;10.00;74.40;;;;;;5086954;28;20032;-69
2022/05/30 03:06:28;;;;;;;4.32;2.00;;;9.90;74.40;;;;;;5062672;28;20024;-70
2022/05/30 03:08:53;;;;;;;2.65;1.80;;;9.90;74.50;;;;;;5094204;28;20108;-68
2022/05/30 03:11:19;;;;;;;3.95;1.75;;;9.90;74.50;;;;;;5078038;28;20070;-67
2022/05/30 03:13:44;;;;;;;4.90;2.00;;;9.80;74.60;;;;;;5082571;28;20046;-68
2022/05/30 03:16:10;;;;;;;1.98;1.48;;;9.80;74.60;;;;;;5063042;28;20012;-68
2022/05/30 03:18:36;;;;;;;4.68;1.80;;;9.80;74.80;;;;;;5080903;28;20056;-68
2022/05/30 03:21:02;;;;;;;2.80;1.60;;;9.80;74.80;;;;;;5073218;28;20056;-67
2022/05/30 03:23:27;;;;;;;4.20;1.90;;;9.80;74.70;;;;;;5084161;28;20026;-68
2022/05/30 03:25:53;;;;;;;2.67;1.73;;;9.80;74.80;;;;;;5081884;28;20634;-69
2022/05/30 03:28:18;;;;;;;4.07;1.83;;;9.80;74.80;;;;;;5089034;28;21094;-69
2022/05/30 03:30:44;;;;;;;3.22;2.10;;;9.70;74.80;;;;;;5089999;28;20055;-68
2022/05/30 03:33:10;;;;;;;3.65;1.92;;;9.70;74.80;;;;;;5090794;28;20098;-68
2022/05/30 03:35:36;;;;;;;2.63;1.70;;;9.70;74.90;;;;;;5090760;28;20047;-68
2022/05/30 03:38:03;;;;;;;3.83;2.03;;;9.80;75.00;;;;;;5066076;28;20054;-68
2022/05/30 03:40:29;;;;;;;6.47;1.95;;;9.80;75.10;;;;;;5061177;28;20017;-68
2022/05/30 03:42:55;;;;;;;3.03;1.77;;;9.80;75.10;;;;;;5076384;28;20050;-68
2022/05/30 03:45:21;;;;;;;2.45;1.42;;;9.80;75.10;;;;;;5077156;28;20386;-68
2022/05/30 03:47:47;;;;;;;5.03;2.00;;;9.90;75.10;;;;;;5096318;28;20077;-68
2022/05/30 03:50:19;;;;;;;5.15;1.88;;;9.90;75.10;;;;;;5085233;28;20043;-70
2022/05/30 03:52:45;;;;;;;3.10;1.80;;;10.00;75.40;;;;;;5098449;28;20497;-71
2022/05/30 03:55:14;;;;;;;4.68;2.00;;;10.00;75.30;;;;;;5080078;28;20483;-70
2022/05/30 03:57:41;;;;;;;3.20;1.83;;;10.00;75.20;;;;;;5089250;28;20028;-70
2022/05/30 04:00:13;;;;;;;7.25;2.00;;;10.10;75.30;;;;;;5098943;28;20103;-69
2022/05/30 04:02:38;;;;;;;3.13;1.80;;;10.20;75.30;;;;;;5079670;28;20360;-69
2022/05/30 04:05:04;;;;;;;4.68;2.13;;;10.20;75.10;;;;;;5092471;28;20050;-69
2022/05/30 04:07:30;;;;;;;3.08;1.80;;;10.30;75.10;;;;;;5087434;28;20028;-67
2022/05/30 04:09:55;;;;;;;3.45;1.42;;;10.30;75.20;;;;;;5086381;28;20023;-69
2022/05/30 04:12:22;;;;;;;5.30;1.90;;;10.40;75.10;;;;;;5095652;28;20055;-68
2022/05/30 04:14:59;;;;;;;3.90;1.90;;;10.40;75.10;;;;;;5090511;28;20027;-68
2022/05/30 04:17:26;;;;;;;3.20;1.80;;;10.40;75.20;;;;;;5084342;28;20509;-69
2022/05/30 04:19:51;;;;;;;3.50;1.90;;;10.40;75.80;;;;;;5080579;28;20028;-69
2022/05/30 04:22:18;;;;;;;2.88;1.77;;;10.40;75.10;;;;;;5092706;28;20023;-69
2022/05/30 04:24:43;;;;;;;4.00;1.90;;;10.50;75.10;;;;;;5066657;28;20024;-69
2022/05/30 04:27:09;;;;;;;3.40;1.83;;;10.50;75.10;;;;;;5083421;28;20069;-68
2022/05/30 04:29:35;;;;;;;3.38;2.03;;;10.60;75.10;;;;;;5096573;28;20027;-69
2022/05/30 04:32:02;;;;;;;2.63;1.77;;;10.60;75.00;;;;;;5083730;28;20583;-68
2022/05/30 04:34:28;;;;;;;3.38;1.80;;;10.60;74.90;;;;;;5087320;28;20080;-69
2022/05/30 04:36:54;;;;;;;4.10;2.00;;;10.70;74.90;;;;;;5087677;28;20162;-69
2022/05/30 04:39:19;;;;;;;3.47;1.70;;;10.70;74.90;;;;;;5096718;28;20573;-70
2022/05/30 04:41:45;;;;;;;2.78;1.60;;;10.70;74.80;;;;;;5085773;28;20028;-70
2022/05/30 04:44:10;;;;;;;4.15;2.08;;;10.80;74.70;;;;;;5095811;28;20035;-71
2022/05/30 04:46:36;;;;;;;2.55;1.70;;;10.80;74.60;;;;;;5086093;28;20032;-69
2022/05/30 04:49:01;;;;;;;3.63;1.98;;;10.80;74.60;;;;;;5083598;28;20040;-69
2022/05/30 04:51:27;;;;;;;4.28;2.20;;;10.90;74.60;;;;;;5081817;28;20492;-70
2022/05/30 04:53:53;;;;;;;3.00;1.60;;;10.90;74.70;;;;;;5096507;28;20101;-70
2022/05/30 04:56:19;;;;;;;3.72;1.75;;;10.90;74.70;;;;;;5092605;28;20090;-69
2022/05/30 04:58:49;;;;;;;3.78;1.90;;;10.90;74.70;;;;;;5094972;28;20012;-69
2022/05/30 05:01:15;;;;;;;3.65;1.80;;;11.00;74.70;;;;;;5093448;28;20033;-70
2022/05/30 05:03:42;;;;;;;3.25;1.80;;;11.00;74.70;;;;;;5101064;28;20080;-69
2022/05/30 05:06:14;;;;;;;4.97;1.90;;;11.00;74.60;;;;;;5100017;28;20500;-69
2022/05/30 05:08:51;;;;;;;3.63;1.80;;;11.00;74.50;;;;;;5081278;28;20035;-69
2022/05/30 05:11:34;;;;;;;3.67;1.60;;;11.10;74.50;;;;;;5075070;28;20095;-69
2022/05/30 05:13:59;;;;;;;3.08;1.80;;;11.20;74.40;;;;;;5090257;28;20040;-68
2022/05/30 05:16:29;;;;;;;2.38;1.58;;;11.20;74.10;;;;;;5086086;28;20545;-69
2022/05/30 05:18:55;;;;;;;2.45;1.65;;;11.30;74.00;;;;;;5088313;28;20484;-69
2022/05/30 05:21:26;;;;;;;2.80;1.70;;;11.30;73.90;;;;;;5093052;28;20099;-68
2022/05/30 05:23:53;;;;;;;2.60;1.60;;;11.40;73.80;;;;;;5088394;28;20024;-69
2022/05/30 05:26:19;;;;;;;3.60;1.45;;;11.50;73.60;;;;;;5083374;28;20035;-70
2022/05/30 05:28:46;;;;;;;2.22;1.42;;;11.60;73.30;;;;;;5090041;28;20377;-69
2022/05/30 05:31:16;;;;;;;2.58;1.50;;;11.80;73.10;;;;;;5091591;28;20031;-69
2022/05/30 05:33:42;;;;;;;3.20;1.55;;;12.00;72.60;;;;;;5083920;28;20404;-70
2022/05/30 05:36:07;;;;;;;2.72;1.40;;;12.30;71.90;;;;;;5076945;28;20082;-69
2022/05/30 05:38:33;;;;;;;1.75;1.25;;;12.40;71.20;;;;;;5096945;28;20031;-68
2022/05/30 05:40:58;;;;;;;2.47;1.35;;;12.50;70.80;;;;;;5083091;28;20437;-68
2022/05/30 05:43:24;;;;;;;1.92;1.20;;;12.60;70.50;;;;;;5082656;28;20025;-69
2022/05/30 05:45:49;;;;;;;1.40;0.98;;;12.60;70.50;;;;;;5096009;28;20081;-69
2022/05/30 05:48:15;;;;;;;2.60;1.40;;;12.60;70.30;;;;;;5095386;28;20585;-69
2022/05/30 05:50:43;;;;;;;4.25;1.38;;;12.70;70.40;;;;;;5098866;28;20028;-69
2022/05/30 05:53:10;;;;;;;2.92;1.38;;;12.70;70.30;;;;;;5088006;28;20020;-69
2022/05/30 05:55:36;;;;;;;2.42;1.48;;;12.90;70.10;;;;;;5095189;28;20036;-69
2022/05/30 05:58:02;;;;;;;2.60;1.38;;;13.20;69.30;;;;;;5088363;28;20035;-70
2022/05/30 06:00:27;;;;;;;2.80;1.30;;;13.50;68.50;;;;;;5090520;28;20035;-70
2022/05/30 06:02:53;;;;;;;2.13;1.20;;;14.10;67.20;;;;;;5097317;28;20076;-70
2022/05/30 06:05:19;;;;;;;1.70;1.40;;;14.40;66.10;;;;;;5093014;28;20028;-71
2022/05/30 06:07:45;;;;;;;1.50;1.27;;;15.10;64.80;;;;;;5103417;28;20035;-70
2022/05/30 06:10:14;;;;;;;2.25;1.20;;;15.10;63.30;;;;;;5108478;28;20028;-69
2022/05/30 06:12:45;;;;;;;1.80;1.00;;;15.10;62.60;;;;;;5088148;28;20038;-70
2022/05/30 06:15:16;;;;;;;2.95;1.02;;;15.30;62.00;;;;;;5088348;28;20153;-70
2022/05/30 06:17:42;;;;;;;2.90;1.00;;;15.10;61.40;;;;;;5089975;28;20032;-69
2022/05/30 06:20:11;;;;;;;1.80;0.90;;;15.00;61.50;;;;;;5068132;28;20020;-69
2022/05/30 06:22:36;;;;;;;3.08;0.98;;;14.90;61.40;;;;;;5084120;28;20027;-70
2022/05/30 06:25:03;;;;;;;2.42;1.10;;;15.30;61.40;;;;;;5092480;28;20024;-70
2022/05/30 06:27:29;;;;;;;0.88;0.80;;;15.50;60.70;;;;;;5066491;28;20423;-70
2022/05/30 06:29:55;;;;;;;2.17;1.00;;;15.50;60.40;;;;;;5088687;28;20019;-70
2022/05/30 06:32:21;;;;;;;2.33;1.10;;;15.40;60.00;;;;;;5108630;28;20031;-70
2022/05/30 06:34:47;;;;;;;1.63;1.00;;;15.30;60.20;;;;;;5101624;28;20074;-70
2022/05/30 06:37:12;;;;;;;3.50;1.00;;;15.40;60.00;;;;;;5092112;28;20031;-69
2022/05/30 06:39:38;;;;;;;2.08;0.90;;;15.40;59.70;;;;;;5091347;28;20020;-69
2022/05/30 06:42:08;;;;;;;2.50;0.90;;;15.40;59.40;;;;;;5094288;28;20189;-70
2022/05/30 06:44:35;;;;;;;1.65;0.73;;;15.20;59.20;;;;;;5084396;28;20032;-69
2022/05/30 06:47:01;;;;;;;2.22;0.90;;;15.20;60.10;;;;;;5082829;28;20107;-69
2022/05/30 06:49:27;;;;;;;1.75;0.80;;;15.20;59.40;;;;;;5083906;28;20154;-69
2022/05/30 06:51:52;;;;;;;0.98;0.60;;;15.20;59.20;;;;;;5085216;28;20027;-69
2022/05/30 06:54:18;;;;;;;2.35;0.80;;;15.40;58.90;;;;;;5075139;28;20032;-70
2022/05/30 06:58:11;;;;;;;1.42;0.80;;;15.30;58.70;;;;;;5090087;28;20019;-70
2022/05/30 06:59:29;;;;;;;1.85;0.80;;;15.40;58.50;;;;;;5084137;28;20043;-68
2022/05/30 07:01:55;;;;;;;1.42;0.95;;;15.50;58.10;;;;;;5079390;28;20050;-69
2022/05/30 07:04:21;;;;;;;0.80;0.65;;;15.40;57.90;;;;;;5084331;28;20032;-69
2022/05/30 07:06:47;;;;;;;1.85;0.90;;;15.40;57.90;;;;;;5091630;28;20387;-69
2022/05/30 07:09:12;;;;;;;1.45;0.80;;;15.40;57.80;;;;;;5074017;28;20028;-69
2022/05/30 07:11:39;;;;;;;1.40;0.75;;;15.30;58.00;;;;;;5085870;28;20682;-70
2022/05/30 07:14:06;;;;;;;1.73;0.90;;;15.20;58.10;;;;;;5086114;28;20024;-69
2022/05/30 07:16:31;;;;;;;0.90;0.70;;;15.10;58.40;;;;;;5086686;28;20028;-69
2022/05/30 07:18:57;;;;;;;1.88;0.70;;;15.20;58.60;;;;;;5078836;28;20020;-70
2022/05/30 07:21:23;;;;;;;0.77;0.50;;;15.20;58.50;;;;;;5078021;28;20587;-70
2022/05/30 07:23:49;;;;;;;1.33;0.70;;;15.20;58.60;;;;;;5076916;28;20096;-70
2022/05/30 07:26:19;;;;;;;1.73;0.80;;;15.20;58.50;;;;;;5073593;28;20082;-69
2022/05/30 07:28:45;;;;;;;2.65;0.70;;;15.20;58.40;;;;;;5093149;28;20020;-70
2022/05/30 07:31:14;;;;;;;2.72;0.77;;;15.20;58.30;;;;;;5079095;28;20050;-70
2022/05/30 07:33:42;;;;;;;2.05;0.65;;;15.10;58.40;;;;;;5092290;28;20012;-69
2022/05/30 07:36:14;;;;;;;1.65;0.70;;;15.00;58.60;;;;;;5069227;28;20077;-69
2022/05/30 07:38:40;;;;;;;1.30;0.57;;;15.00;58.80;;;;;;5071742;28;20385;-70
2022/05/30 07:41:06;;;;;;;0.93;0.57;;;15.00;59.00;;;;;;5079441;28;20031;-69
2022/05/30 07:43:32;;;;;;;1.10;0.70;;;15.00;59.00;;;;;;5086892;28;20461;-69
2022/05/30 07:46:02;;;;;;;1.70;0.77;;;14.80;59.20;;;;;;5086010;28;20028;-69
2022/05/30 07:48:28;;;;;;;2.08;0.70;;;14.80;59.30;;;;;;5084010;28;20070;-69
2022/05/30 07:50:58;;;;;;;1.17;0.80;;;14.70;59.40;;;;;;5082435;28;20035;-68
2022/05/30 07:53:25;;;;;;;1.65;0.80;;;14.80;59.30;;;;;;5083151;28;20028;-69
2022/05/30 07:55:50;;;;;;;2.58;0.80;;;14.80;59.20;;;;;;5082431;28;20030;-69
2022/05/30 07:58:19;;;;;;;1.40;0.70;;;14.90;59.20;;;;;;5084239;28;20495;-69
2022/05/30 08:00:50;;;;;;;2.38;0.75;;;14.80;59.10;;;;;;5085367;28;20032;-70
2022/05/30 08:03:16;;;;;;;2.78;1.00;;;14.90;59.20;;;;;;5078369;28;20024;-69
2022/05/30 08:05:46;;;;;;;2.75;1.20;;;15.00;58.90;;;;;;5085026;28;20021;-69
2022/05/30 08:08:12;;;;;;;1.52;0.70;;;15.00;59.00;;;;;;5074896;28;20685;-68
2022/05/30 08:10:37;;;;;;;1.58;0.70;;;15.10;58.90;;;;;;5089963;28;20085;-69
2022/05/30 08:13:04;;;;;;;2.90;0.90;;;15.20;58.80;;;;;;5082744;28;20070;-69
2022/05/30 08:15:30;;;;;;;1.45;0.70;;;15.30;58.60;;;;;;5065098;28;20036;-70
2022/05/30 08:17:58;;;;;;;2.00;0.80;;;15.30;58.50;;;;;;5064443;28;20043;-70
2022/05/30 08:20:26;;;;;;;0.85;0.70;;;15.40;58.40;;;;;;5081455;28;20516;-70
2022/05/30 08:22:51;;;;;;;2.65;0.82;;;15.40;58.10;;;;;;5085445;28;20017;-70
2022/05/30 08:25:18;;;;;;;1.77;0.80;;;15.30;58.10;;;;;;5085631;28;20032;-69
2022/05/30 08:27:45;;;;;;;2.10;0.80;;;15.40;58.00;;;;;;5081520;28;20119;-69
2022/05/30 08:30:13;;;;;;;2.22;0.80;;;15.40;57.70;;;;;;5086374;28;20107;-70
2022/05/30 08:32:41;;;;;;;1.58;0.70;;;15.50;57.60;;;;;;5085667;28;20020;-69
2022/05/30 08:35:08;;;;;;;2.75;0.80;;;15.50;57.40;;;;;;5087444;28;20088;-70
2022/05/30 08:37:37;;;;;;;1.67;0.70;;;15.40;57.50;;;;;;5089385;28;20490;-70
2022/05/30 08:42:52;;;;;;;2.72;0.80;;;15.30;57.30;;;;;;5086967;28;20100;-69
2022/05/30 08:45:21;;;;;;;2.03;0.80;;;15.30;57.40;;;;;;5070576;28;20032;-69
2022/05/30 08:47:58;;;;;;;1.98;0.70;;;15.30;57.30;;;;;;5089097;28;20031;-69
2022/05/30 08:51:11;;;;;;;0.60;0.60;;;15.40;57.50;;;;;;5086738;28;20093;-70
2022/05/30 08:54:13;;;;;;;2.13;0.73;;;15.50;57.20;;;;;;5006094;28;20123;-70
2022/05/30 08:56:42;;;;;;;2.13;0.85;;;15.60;56.70;;;;;;5082655;28;20028;-69
2022/05/30 08:59:27;;;;;;;2.17;1.00;;;15.60;56.30;;;;;;5082799;28;20024;-69
2022/05/30 09:02:02;;;;;;;1.92;0.77;;;15.60;55.60;;;;;;5079577;28;20375;-70
2022/05/30 09:04:49;;;;;;;1.30;0.70;;;15.70;56.50;;;;;;5087229;28;20020;-69
2022/05/30 09:07:26;;;;;;;0.80;0.80;;;15.80;54.70;;;;;;5085138;28;20073;-68
2022/05/30 09:09:59;;;;;;;1.27;0.70;;;15.60;54.00;;;;;;5095120;28;20036;-69
2022/05/30 09:12:31;;;;;;;1.15;0.60;;;15.80;54.60;;;;;;5062743;28;20064;-68
2022/05/30 09:15:18;;;;;;;0.98;0.52;;;16.10;54.40;;;;;;5080535;28;20028;-69
2022/05/30 09:17:50;;;;;;;0.82;0.60;;;16.20;54.10;;;;;;5077230;28;20055;-70
2022/05/30 09:20:21;;;;;;;1.75;0.60;;;16.40;53.70;;;;;;5068834;28;20352;-70
2022/05/30 09:22:47;;;;;;;1.13;0.50;;;16.40;53.50;;;;;;5083502;28;20125;-69
2022/05/30 09:28:07;;;;;;;1.38;0.40;;;16.60;53.10;;;;;;5086743;28;20038;-69
2022/05/30 09:30:48;;;;;;;1.30;0.60;;;16.50;52.80;;;;;;5085367;28;20032;-69
2022/05/30 09:33:29;;;;;;;1.40;0.60;;;16.50;52.90;;;;;;5083329;28;20236;-69
2022/05/30 09:36:25;;;;;;;1.63;0.70;;;16.40;52.90;;;;;;5086030;28;20035;-69
2022/05/30 09:38:57;;;;;;;1.08;0.70;;;16.20;52.90;;;;;;5067866;28;20431;-69
2022/05/30 09:41:26;;;;;;;1.98;0.60;;;16.20;53.00;;;;;;5078361;28;20034;-70
2022/05/30 09:43:53;;;;;;;1.35;0.60;;;16.30;53.10;;;;;;5083436;28;20016;-69
2022/05/30 09:46:59;;;;;;;0.90;0.70;;;16.50;53.00;;;;;;5087144;28;20024;-70
2022/05/30 09:49:38;;;;;;;1.70;0.80;;;16.70;52.50;;;;;;5086936;28;20486;-70
2022/05/30 09:52:21;;;;;;;1.15;0.60;;;16.90;52.00;;;;;;5079738;28;20028;-70
2022/05/30 09:54:46;;;;;;;1.55;0.60;;;17.00;51.40;;;;;;5090328;28;20020;-70
2022/05/30 09:57:18;;;;;;;1.92;0.70;;;17.10;51.30;;;;;;5082647;28;20073;-70
2022/05/30 09:59:47;;;;;;;0.85;0.60;;;17.20;50.20;;;;;;5069309;28;20051;-69
2022/05/30 10:02:31;;;;;;;1.48;0.75;;;17.20;49.00;;;;;;5099005;28;20030;-68
2022/05/30 10:05:00;;;;;;;0.90;0.70;;;17.00;48.30;;;;;;5082956;28;20051;-70
2022/05/30 10:07:26;;;;;;;1.08;0.70;;;16.70;48.90;;;;;;5080606;28;20493;-70
2022/05/30 10:10:02;;;;;;;2.20;0.70;;;16.80;49.50;;;;;;5086508;28;20054;-69
2022/05/30 10:12:29;;;;;;;1.83;1.00;;;16.90;49.50;;;;;;5089729;28;20114;-70
2022/05/30 10:14:55;;;;;;;1.15;0.70;;;17.00;49.30;;;;;;5085734;28;20028;-70
2022/05/30 10:17:33;;;;;;;2.05;0.82;;;16.90;48.60;;;;;;5081494;28;20100;-70
2022/05/30 10:20:03;;;;;;;2.03;1.42;;;16.90;49.10;;;;;;5085452;28;20027;-69
2022/05/30 10:28:44;;;;;;;1.48;0.70;;;16.70;50.00;;;;;;5082878;28;20034;-69
2022/05/30 10:31:40;;;;;;;1.02;0.52;;;16.60;50.50;;;;;;5078054;28;20032;-70
2022/05/30 10:34:19;;;;;;;1.20;0.60;;;16.50;51.00;;;;;;5090065;28;20138;-70
2022/05/30 10:37:00;;;;;;;1.02;0.57;;;16.40;51.10;;;;;;5081038;28;20028;-69
2022/05/30 10:39:53;;;;;;;1.73;0.60;;;16.40;51.50;;;;;;5085972;28;20019;-69
2022/05/30 10:42:18;;;;;;;;;;;16.30;51.80;;;;;;5079979;28;20032;-69
2022/05/30 10:44:50;;;;;;;1.70;0.80;;;16.20;52.00;;;;;;5091152;28;19919;-69
2022/05/30 10:47:30;;;;;;;1.33;0.80;;;16.10;52.30;;;;;;5087410;28;20406;-70
2022/05/30 10:50:23;;;;;;;1.92;0.70;;;16.00;52.60;;;;;;5102672;28;20027;-68
2022/05/30 10:53:05;;;;;;;2.38;0.75;;;15.90;52.60;;;;;;5088827;28;20054;-70
2022/05/30 10:55:38;;;;;;;2.75;0.80;;;15.80;52.80;;;;;;5089130;28;20056;-70
2022/05/30 10:58:33;;;;;;;2.45;0.98;;;15.80;53.00;;;;;;5084616;28;20012;-68
2022/05/30 11:01:14;;;;;;;2.05;0.90;;;15.70;53.10;;;;;;5087953;28;20031;-70
2022/05/30 11:03:47;;;;;;;2.13;0.90;;;15.60;53.10;;;;;;5081098;28;20367;-69
2022/05/30 11:06:29;;;;;;;1.33;0.73;;;15.50;53.30;;;;;;5084518;28;20070;-70
2022/05/30 11:09:04;;;;;;;;;;;15.40;53.20;;;;;;5082747;28;20117;-70
2022/05/30 11:11:42;;;;;;;1.38;0.80;;;15.50;53.30;;;;;;5089280;28;19916;-69
2022/05/30 11:14:43;;;;;;;2.70;1.00;;;15.40;53.10;;;;;;5081917;28;20044;-69
2022/05/30 11:17:24;;;;;;;1.35;0.80;;;15.40;53.00;;;;;;5091395;28;20028;-69
2022/05/30 11:20:15;;;;;;;2.47;0.90;;;15.40;53.20;;;;;;5087328;28;20024;-69
2022/05/30 11:22:42;;;;;;;1.85;1.00;;;15.40;53.00;;;;;;5059239;28;20845;-71
2022/05/30 11:25:15;;;;;;;1.75;1.20;;;15.50;52.90;;;;;;5094307;28;20374;-69
2022/05/30 11:27:43;;;;;;;2.65;1.40;;;15.60;52.90;;;;;;5092784;28;20437;-69
2022/05/30 11:30:30;;;;;;;2.65;1.00;;;15.60;52.80;;;;;;5079810;28;20482;-70
2022/05/30 11:33:12;;;;;;;1.85;0.88;;;15.70;52.50;;;;;;5079684;28;20039;-69
2022/05/30 11:36:00;;;;;;;0.68;0.60;;;15.70;52.40;;;;;;5086556;28;20020;-70
2022/05/30 11:38:35;;;;;;;1.90;1.00;;;15.70;52.20;;;;;;5083946;28;20024;-70
2022/05/30 11:41:27;;;;;;;2.13;0.98;;;15.70;52.00;;;;;;5080699;28;20043;-70
2022/05/30 11:44:13;;;;;;;;;;;15.80;52.00;;;;;;5065225;28;20112;-69
2022/05/30 11:47:03;;;;;;;1.52;1.05;;;15.90;52.00;;;;;;5059188;28;19915;-70
2022/05/30 11:49:35;;;;;;;2.20;0.70;;;15.90;51.90;;;;;;5079585;28;20036;-69
2022/05/30 11:52:39;;;;;;;1.50;1.00;;;15.90;52.00;;;;;;5078857;28;20032;-69
2022/05/30 11:55:04;;;;;;;2.97;0.90;;;16.00;51.80;;;;;;4996728;28;20041;-70
2022/05/30 11:57:53;;;;;;;1.83;0.80;;;16.00;51.70;;;;;;4987006;28;20561;-69
2022/05/30 12:00:33;;;;;;;1.15;0.70;;;16.00;51.60;;;;;;5054129;28;20093;-69
2022/05/30 12:03:29;;;;;;;1.67;0.80;;;16.00;51.30;;;;;;5076068;28;20060;-69
2022/05/30 12:06:03;;;;;;;1.00;0.65;;;16.10;51.40;;;;;;5070111;28;21704;-69
2022/05/30 12:08:57;;;;;;;1.30;0.70;;;16.20;51.40;;;;;;5104990;28;20045;-70
2022/05/30 12:11:52;;;;;;;0.80;0.70;;;16.30;51.20;;;;;;5091111;28;20043;-70
2022/05/30 12:14:43;;;;;;;1.23;0.80;;;16.30;51.20;;;;;;5098208;28;20028;-68
2022/05/30 12:17:31;;;;;;;1.02;0.70;;;16.30;51.20;;;;;;5095265;28;20029;-71
2022/05/30 12:25:52;;;;;;;1.88;1.00;;;16.50;50.50;;;;;;5098057;28;20187;-70
2022/05/30 12:28:27;;;;;;;1.37;0.80;;;16.60;50.50;;;;;;5110138;28;20035;-70
2022/05/30 12:30:58;;;;;;;1.58;1.08;;;16.80;50.60;;;;;;5075321;28;20664;-69
2022/05/30 12:33:29;;;;;;;2.20;1.00;;;16.80;50.20;;;;;;5091949;28;20433;-69
2022/05/30 12:36:10;;;;;;;1.75;0.80;;;16.80;49.70;;;;;;5087737;28;20485;-70
2022/05/30 12:38:56;;;;;;;2.10;1.05;;;16.90;50.10;;;;;;5093256;28;20024;-71
2022/05/30 12:41:34;;;;;;;1.33;0.88;;;16.90;50.00;;;;;;5081446;28;20024;-70
2022/05/30 12:44:00;;;;;;;1.58;0.85;;;17.00;50.80;;;;;;5091639;28;20092;-68
2022/05/30 12:46:31;;;;;;;1.73;0.80;;;17.00;50.00;;;;;;5109011;28;20031;-70
2022/05/30 12:49:17;;;;;;;1.50;0.90;;;17.20;50.00;;;;;;5098001;28;20016;-70
2022/05/30 12:52:17;;;;;;;1.15;0.80;;;17.30;49.80;;;;;;5094214;28;20394;-69
2022/05/30 12:54:57;;;;;;;1.35;0.90;;;17.40;49.70;;;;;;5094625;28;20055;-69
2022/05/30 12:57:42;;;;;;;1.67;0.80;;;17.50;49.50;;;;;;5088909;28;20036;-70
2022/05/30 13:00:15;;;;;;;3.22;1.10;;;17.70;49.50;;;;;;5083082;28;20051;-70
2022/05/30 13:02:52;;;;;;;2.75;1.20;;;17.80;49.00;;;;;;5071881;28;20031;-70
2022/05/30 13:05:38;;;;;;;1.30;0.90;;;17.80;48.40;;;;;;5089727;28;20170;-70
2022/05/30 13:08:42;;;;;;;1.83;0.70;;;18.00;48.20;;;;;;5102645;28;20080;-69
2022/05/30 13:11:10;;;;;;;2.45;0.80;;;18.10;47.90;;;;;;5091781;28;20451;-68
2022/05/30 13:13:41;;;;;;;1.83;1.00;;;18.30;47.70;;;;;;5087497;28;20017;-69
2022/05/30 13:16:17;;;;;;;1.00;0.85;;;18.20;46.70;;;;;;5065496;28;20024;-69
2022/05/30 13:18:44;;;;;;;2.15;1.00;;;18.40;47.00;;;;;;5085635;28;20051;-70
2022/05/30 13:21:12;;;;;;;1.95;1.10;;;18.50;46.90;;;;;;5086435;28;20012;-69
2022/05/30 13:23:37;;;;;;;1.77;1.00;;;18.40;45.50;;;;;;5084077;28;20016;-70
2022/05/30 13:26:10;;;;;;;1.63;1.00;;;18.40;45.50;;;;;;5083740;28;20068;-70
2022/05/30 13:28:41;;;;;;;2.53;1.00;;;18.50;44.90;;;;;;5087061;28;20024;-70
2022/05/30 13:31:10;;;;;;;1.73;0.80;;;18.60;44.30;;;;;;5084462;28;20033;-69